createdAt,value
2018-07-12T00:00:59.397Z,101071.47
2018-07-12T00:03:27.185Z,101066.73
2018-07-12T00:05:54.956Z,101065.45
2018-07-12T00:08:22.748Z,101063.70
2018-07-12T00:10:50.515Z,101064.59
2018-07-12T00:13:18.322Z,101067.56
2018-07-12T00:15:46.100Z,101066.32
2018-07-12T00:18:13.892Z,101073.61
2018-07-12T00:20:41.644Z,101065.86
2018-07-12T00:23:09.445Z,101064.17
2018-07-12T00:25:37.277Z,101062.44
2018-07-12T00:28:05.061Z,101054.28
2018-07-12T00:30:33.232Z,101062.86
2018-07-12T00:33:01.034Z,101068.47
2018-07-12T00:35:28.820Z,101068.02
2018-07-12T00:37:56.593Z,101064.19
2018-07-12T00:40:24.384Z,101069.80
2018-07-12T00:42:52.152Z,101055.16
2018-07-12T00:45:19.934Z,101056.88
2018-07-12T00:47:47.683Z,101053.48
2018-07-12T00:50:15.465Z,101051.30
2018-07-12T00:52:43.216Z,101051.33
2018-07-12T00:55:11.000Z,101052.61
2018-07-12T00:57:38.751Z,101047.86
2018-07-12T01:00:06.523Z,101048.74
2018-07-12T01:02:34.272Z,101055.61
2018-07-12T01:05:02.068Z,101055.17
2018-07-12T01:07:29.876Z,101058.20
2018-07-12T01:09:57.680Z,101056.05
2018-07-12T01:12:25.447Z,101056.47
2018-07-12T01:14:53.221Z,101049.17
2018-07-12T01:17:20.985Z,101052.62
2018-07-12T01:19:48.773Z,101051.34
2018-07-12T01:22:16.561Z,101053.04
2018-07-12T01:24:44.347Z,101048.33
2018-07-12T01:27:12.088Z,101048.76
2018-07-12T01:29:39.868Z,101055.20
2018-07-12T01:32:07.612Z,101052.62
2018-07-12T01:34:35.382Z,101049.20
2018-07-12T01:37:03.148Z,101050.04
2018-07-12T01:39:30.896Z,101050.05
2018-07-12T01:41:58.672Z,101046.17
2018-07-12T01:44:26.428Z,101048.33
2018-07-12T01:46:54.211Z,101050.05
2018-07-12T01:49:21.959Z,101050.04
2018-07-12T01:51:49.728Z,101054.36
2018-07-12T01:54:17.479Z,101054.78
2018-07-12T01:56:45.268Z,101052.62
2018-07-12T01:59:13.046Z,101053.03
2018-07-12T02:01:40.821Z,101059.93
2018-07-12T02:04:08.587Z,101058.22
2018-07-12T02:06:36.369Z,101057.34
2018-07-12T02:09:04.835Z,101050.03
2018-07-12T02:11:32.636Z,101051.73
2018-07-12T02:14:00.424Z,101051.33
2018-07-12T02:16:28.204Z,101053.03
2018-07-12T02:18:55.952Z,101053.03
2018-07-12T02:21:23.724Z,101065.94
2018-07-12T02:23:51.472Z,101062.92
2018-07-12T02:26:19.248Z,101062.50
2018-07-12T02:28:47.002Z,101064.63
2018-07-12T02:31:14.770Z,101063.77
2018-07-12T02:33:42.524Z,101067.22
2018-07-12T02:36:10.303Z,101059.05
2018-07-12T02:38:38.068Z,101058.62
2018-07-12T02:41:05.840Z,101055.17
2018-07-12T02:43:33.640Z,101053.86
2018-07-12T02:46:01.416Z,101056.45
2018-07-12T02:48:29.195Z,101060.75
2018-07-12T02:50:56.949Z,101061.22
2018-07-12T02:53:24.716Z,101057.78
2018-07-12T02:55:52.472Z,101057.77
2018-07-12T02:58:20.252Z,101057.78
2018-07-12T03:00:48.013Z,101057.77
2018-07-12T03:03:15.777Z,101051.77
2018-07-12T03:05:43.523Z,101051.76
2018-07-12T03:08:11.305Z,101058.62
2018-07-12T03:10:39.052Z,101056.05
2018-07-12T03:13:06.833Z,101060.79
2018-07-12T03:15:34.589Z,101056.03
2018-07-12T03:18:02.377Z,101059.05
2018-07-12T03:20:30.129Z,101051.73
2018-07-12T03:22:57.912Z,101049.61
2018-07-12T03:25:25.676Z,101053.47
2018-07-12T03:27:53.448Z,101054.34
2018-07-12T03:30:21.204Z,101051.75
2018-07-12T03:32:48.978Z,101053.45
2018-07-12T03:35:16.730Z,101050.02
2018-07-12T03:37:44.516Z,101041.84
2018-07-12T03:40:12.272Z,101044.44
2018-07-12T03:42:40.044Z,101040.14
2018-07-12T03:45:07.788Z,101037.13
2018-07-12T03:47:35.560Z,101043.57
2018-07-12T03:50:03.313Z,101043.13
2018-07-12T03:52:31.092Z,101044.87
2018-07-12T03:54:58.844Z,101053.46
2018-07-12T03:57:26.600Z,101044.00
2018-07-12T03:59:54.378Z,101045.71
2018-07-12T04:02:22.132Z,101043.10
2018-07-12T04:04:49.957Z,101043.55
2018-07-12T04:07:17.708Z,101044.86
2018-07-12T04:09:45.505Z,101050.45
2018-07-12T04:12:13.251Z,101056.02
2018-07-12T04:14:41.028Z,101059.89
2018-07-12T04:17:08.789Z,101055.17
2018-07-12T04:19:36.564Z,101063.78
2018-07-12T04:22:04.321Z,101067.20
2018-07-12T04:24:32.116Z,101073.22
2018-07-12T04:26:59.865Z,101071.50
2018-07-12T04:29:27.654Z,101071.94
2018-07-12T04:31:55.425Z,101064.59
2018-07-12T04:34:23.208Z,101058.59
2018-07-12T04:36:50.964Z,101059.45
2018-07-12T04:39:18.752Z,101057.74
2018-07-12T04:41:46.504Z,101063.77
2018-07-12T04:44:14.280Z,101063.73
2018-07-12T04:46:42.056Z,101067.19
2018-07-12T04:49:09.828Z,101069.36
2018-07-12T04:51:37.581Z,101080.09
2018-07-12T04:54:05.364Z,101074.94
2018-07-12T04:56:33.122Z,101079.67
2018-07-12T04:59:00.932Z,101080.52
2018-07-12T05:01:28.731Z,101077.51
2018-07-12T05:03:56.484Z,101075.34
2018-07-12T05:06:24.261Z,101077.50
2018-07-12T05:08:52.013Z,101077.48
2018-07-12T05:11:19.784Z,101078.34
2018-07-12T05:13:47.560Z,101077.92
2018-07-12T05:16:15.401Z,101080.92
2018-07-12T05:18:43.108Z,101085.63
2018-07-12T05:21:10.893Z,101082.21
2018-07-12T05:23:38.666Z,101077.91
2018-07-12T05:26:06.457Z,101090.38
2018-07-12T05:28:34.215Z,101092.97
2018-07-12T05:31:02.004Z,101094.70
2018-07-12T05:33:29.770Z,101096.81
2018-07-12T05:35:58.706Z,101088.64
2018-07-12T05:38:27.553Z,101096.83
2018-07-12T05:40:56.382Z,101100.73
2018-07-12T05:43:25.231Z,101108.03
2018-07-12T05:45:54.050Z,101101.59
2018-07-12T05:48:22.860Z,101108.45
2018-07-12T05:50:52.033Z,101107.61
2018-07-12T05:53:21.120Z,101104.15
2018-07-12T05:55:50.224Z,101105.84
2018-07-12T05:58:19.343Z,101107.09
2018-07-12T06:00:48.434Z,101106.23
2018-07-12T06:03:17.580Z,101111.80
2018-07-12T06:05:46.665Z,101111.38
2018-07-12T06:08:15.777Z,101111.36
2018-07-12T06:10:45.589Z,101113.52
2018-07-12T06:13:14.755Z,101118.61
2018-07-12T06:15:43.790Z,101113.86
2018-07-12T06:18:12.900Z,101120.28
2018-07-12T06:20:42.004Z,101111.25
2018-07-12T06:23:11.176Z,101121.92
2018-07-12T06:25:40.256Z,101115.88
2018-07-12T06:28:09.381Z,101122.70
2018-07-12T06:30:38.459Z,101127.77
2018-07-12T06:33:07.592Z,101129.77
2018-07-12T06:35:36.975Z,101125.45
2018-07-12T06:38:06.117Z,101124.20
2018-07-12T06:40:35.245Z,101126.00
2018-07-12T06:43:04.456Z,101128.59
2018-07-12T06:45:33.544Z,101128.48
2018-07-12T06:48:04.432Z,101127.14
2018-07-12T06:50:33.576Z,101128.91
2018-07-12T06:53:02.712Z,101124.16
2018-07-12T06:55:32.709Z,101127.09
2018-07-12T07:00:36.449Z,101126.96
2018-07-12T07:03:13.439Z,101129.86
2018-07-12T07:05:42.544Z,101129.27
2018-07-12T07:08:11.664Z,101127.44
2018-07-12T07:10:40.887Z,101122.32
2018-07-12T07:13:10.385Z,101122.27
2018-07-12T07:15:39.613Z,101119.48
2018-07-12T07:18:08.729Z,101124.00
2018-07-12T07:20:37.912Z,101121.22
2018-07-12T07:23:07.076Z,101115.92
2018-07-12T07:25:36.217Z,101111.89
2018-07-12T07:28:05.453Z,101116.14
2018-07-12T07:30:34.591Z,101117.28
2018-07-12T07:33:03.710Z,101122.02
2018-07-12T07:35:32.912Z,101118.86
2018-07-12T07:38:02.458Z,101127.84
2018-07-12T07:40:32.757Z,101125.23
2018-07-12T07:43:02.041Z,101123.86
2018-07-12T07:45:31.084Z,101121.95
2018-07-12T07:48:00.536Z,101119.08
2018-07-12T07:50:29.805Z,101119.92
2018-07-12T07:52:58.959Z,101123.59
2018-07-12T07:55:28.108Z,101124.34
2018-07-12T07:57:57.205Z,101129.52
2018-07-12T08:00:26.342Z,101125.19
2018-07-12T08:02:55.440Z,101124.75
2018-07-12T08:05:24.569Z,101124.68
2018-07-12T08:07:53.668Z,101125.69
2018-07-12T08:10:22.864Z,101126.13
2018-07-12T08:12:51.968Z,101118.55
2018-07-12T08:15:21.261Z,101114.56
2018-07-12T08:17:50.456Z,101112.19
2018-07-12T08:20:20.540Z,101113.95
2018-07-12T08:22:49.688Z,101108.02
2018-07-12T08:25:19.057Z,101107.31
2018-07-12T08:27:59.822Z,101113.48
2018-07-12T08:30:29.196Z,101112.39
2018-07-12T08:32:59.964Z,101115.97
2018-07-12T08:35:29.201Z,101117.96
2018-07-12T08:37:58.464Z,101114.98
2018-07-12T08:40:28.514Z,101112.70
2018-07-12T08:42:58.149Z,101124.31
2018-07-12T08:45:27.532Z,101118.04
2018-07-12T08:47:57.578Z,101122.70
2018-07-12T08:50:27.045Z,101120.97
2018-07-12T08:52:57.043Z,101120.70
2018-07-12T08:55:27.603Z,101107.97
2018-07-12T08:57:56.814Z,101111.45
2018-07-12T09:00:26.013Z,101114.75
2018-07-12T09:02:55.241Z,101110.45
2018-07-12T09:05:24.367Z,101111.91
2018-07-12T09:07:53.878Z,101110.06
2018-07-12T09:10:22.990Z,101103.77
2018-07-12T09:12:52.342Z,101110.61
2018-07-12T09:15:21.456Z,101113.38
2018-07-12T09:17:50.555Z,101113.20
2018-07-12T09:20:19.702Z,101106.76
2018-07-12T09:22:48.866Z,101109.44
2018-07-12T09:25:18.045Z,101112.14
2018-07-12T09:27:47.150Z,101107.89
2018-07-12T09:30:16.337Z,101115.30
2018-07-12T09:32:45.918Z,101109.91
2018-07-12T09:35:15.317Z,101108.09
2018-07-12T09:37:44.396Z,101115.33
2018-07-12T09:40:13.508Z,101113.43
2018-07-12T09:42:42.610Z,101118.39
2018-07-12T09:45:11.705Z,101116.59
2018-07-12T09:47:40.836Z,101112.41
2018-07-12T09:50:10.278Z,101115.69
2018-07-12T09:52:39.369Z,101115.25
2018-07-12T09:55:08.496Z,101113.98
2018-07-12T09:57:48.875Z,101116.30
2018-07-12T10:00:18.086Z,101111.56
2018-07-12T10:02:52.633Z,101112.27
2018-07-12T10:05:26.956Z,101108.06
2018-07-12T10:08:01.466Z,101111.95
2018-07-12T10:10:30.922Z,101118.00
2018-07-12T10:13:05.397Z,101115.81
2018-07-12T10:15:39.889Z,101111.34
2018-07-12T10:18:14.280Z,101110.22
2018-07-12T10:20:43.612Z,101111.00
2018-07-12T10:23:12.746Z,101116.43
2018-07-12T10:25:41.853Z,101117.25
2018-07-12T10:28:10.959Z,101108.07
2018-07-12T10:30:40.073Z,101104.59
2018-07-12T10:33:09.939Z,101102.41
2018-07-12T10:35:39.049Z,101112.14
2018-07-12T10:38:08.240Z,101107.11
2018-07-12T10:40:37.344Z,101109.64
2018-07-12T10:43:06.469Z,101114.38
2018-07-12T10:45:35.581Z,101108.00
2018-07-12T10:48:04.736Z,101104.22
2018-07-12T10:50:34.021Z,101114.38
2018-07-12T10:53:03.340Z,101101.28
2018-07-12T10:55:32.709Z,101113.75
2018-07-12T10:58:01.901Z,101101.99
2018-07-12T11:00:31.030Z,101105.55
2018-07-12T11:03:00.175Z,101108.30
2018-07-12T11:05:29.272Z,101102.40
2018-07-12T11:07:58.400Z,101100.97
2018-07-12T11:10:27.556Z,101103.92
2018-07-12T11:13:08.088Z,101104.69
2018-07-12T11:15:37.176Z,101106.21
2018-07-12T11:18:07.148Z,101102.09
2018-07-12T11:20:36.492Z,101105.01
2018-07-12T11:23:05.752Z,101104.54
2018-07-12T11:25:34.865Z,101103.19
2018-07-12T11:28:04.496Z,101097.85
2018-07-12T11:30:34.093Z,101097.02
2018-07-12T11:33:45.923Z,101094.56
2018-07-12T11:36:15.544Z,101104.66
2018-07-12T11:38:45.985Z,101098.52
2018-07-12T11:41:15.877Z,101105.44
2018-07-12T11:43:45.776Z,101098.97
2018-07-12T11:46:16.327Z,101098.42
2018-07-12T11:48:47.332Z,101096.28
2018-07-12T11:51:16.997Z,101104.11
2018-07-12T11:53:46.153Z,101102.97
2018-07-12T11:56:15.284Z,101093.86
2018-07-12T11:58:46.579Z,101085.75
2018-07-12T12:01:15.904Z,101086.89
2018-07-12T12:03:45.099Z,101079.75
2018-07-12T12:06:14.330Z,101081.63
2018-07-12T12:08:43.700Z,101079.18
2018-07-12T12:11:12.817Z,101077.18
2018-07-12T12:13:41.942Z,101079.45
2018-07-12T12:16:11.082Z,101079.98
2018-07-12T12:18:40.412Z,101077.05
2018-07-12T12:21:09.577Z,101077.13
2018-07-12T12:23:38.725Z,101074.84
2018-07-12T12:26:07.904Z,101072.59
2018-07-12T12:28:37.173Z,101067.20
2018-07-12T12:31:06.812Z,101067.89
2018-07-12T12:33:36.130Z,101070.23
2018-07-12T12:36:05.433Z,101067.59
2018-07-12T12:38:34.601Z,101070.00
2018-07-12T12:41:04.576Z,101070.63
2018-07-12T12:43:33.830Z,101066.98
2018-07-12T12:46:02.949Z,101070.34
2018-07-12T12:48:32.037Z,101067.85
2018-07-12T12:51:01.218Z,101064.55
2018-07-12T12:53:30.315Z,101066.75
2018-07-12T12:55:59.476Z,101060.44
2018-07-12T12:58:28.555Z,101058.50
2018-07-12T13:00:57.664Z,101063.47
2018-07-12T13:03:26.764Z,101062.81
2018-07-12T13:05:55.884Z,101060.60
2018-07-12T13:08:24.969Z,101059.95
2018-07-12T13:10:54.093Z,101061.99
2018-07-12T13:13:23.192Z,101054.07
2018-07-12T13:15:52.466Z,101062.04
2018-07-12T13:18:21.520Z,101063.52
2018-07-12T13:20:50.664Z,101056.58
2018-07-12T13:23:20.056Z,101054.20
2018-07-12T13:25:49.295Z,101051.05
2018-07-12T13:28:18.338Z,101052.95
2018-07-12T13:30:47.485Z,101050.14
2018-07-12T13:33:16.580Z,101059.84
2018-07-12T13:35:45.706Z,101066.52
2018-07-12T13:38:14.793Z,101060.30
2018-07-12T13:40:43.908Z,101065.19
2018-07-12T13:43:13.009Z,101065.63
2018-07-12T13:45:42.130Z,101068.66
2018-07-12T13:48:11.244Z,101071.72
2018-07-12T13:50:40.405Z,101073.48
2018-07-12T13:53:09.507Z,101067.04
2018-07-12T13:55:38.615Z,101070.52
2018-07-12T13:58:07.741Z,101065.16
2018-07-12T14:00:36.807Z,101062.07
2018-07-12T14:03:05.914Z,101067.34
2018-07-12T14:05:35.003Z,101067.84
2018-07-12T14:08:04.101Z,101071.91
2018-07-12T14:10:33.237Z,101066.99
2018-07-12T14:13:02.365Z,101064.86
2018-07-12T14:15:31.493Z,101068.25
2018-07-12T14:18:00.854Z,101063.42
2018-07-12T14:20:29.977Z,101054.70
2018-07-12T14:22:59.108Z,101055.14
2018-07-12T14:25:28.210Z,101062.22
2018-07-12T14:27:57.365Z,101069.72
2018-07-12T14:30:26.481Z,101063.52
2018-07-12T14:32:55.586Z,101071.99
2018-07-12T14:35:24.752Z,101070.58
2018-07-12T14:37:53.912Z,101068.65
2018-07-12T14:40:23.328Z,101065.45
2018-07-12T14:42:52.528Z,101068.44
2018-07-12T14:45:21.676Z,101064.33
2018-07-12T14:47:50.817Z,101073.07
2018-07-12T14:50:19.945Z,101065.41
2018-07-12T14:52:49.077Z,101067.25
2018-07-12T14:55:18.204Z,101070.95
2018-07-12T14:57:47.349Z,101078.17
2018-07-12T15:00:16.446Z,101080.57
2018-07-12T15:02:45.645Z,101074.79
2018-07-12T15:05:14.717Z,101077.95
2018-07-12T15:07:43.804Z,101076.59
2018-07-12T15:10:12.924Z,101076.09
2018-07-12T15:12:42.024Z,101077.00
2018-07-12T15:15:11.153Z,101078.17
2018-07-12T15:17:40.327Z,101076.09
2018-07-12T15:20:09.484Z,101075.88
2018-07-12T15:22:38.568Z,101080.70
2018-07-12T15:25:07.724Z,101083.72
2018-07-12T15:27:36.807Z,101081.23
2018-07-12T15:30:06.200Z,101080.92
2018-07-12T15:32:35.300Z,101079.11
2018-07-12T15:35:04.429Z,101087.27
2018-07-12T15:37:33.534Z,101084.26
2018-07-12T15:40:02.716Z,101081.77
2018-07-12T15:42:31.848Z,101082.95
2018-07-12T15:45:00.961Z,101083.19
2018-07-12T15:47:30.077Z,101093.69
2018-07-12T15:49:59.296Z,101088.84
2018-07-12T15:52:28.486Z,101095.41
2018-07-12T15:54:57.653Z,101095.09
2018-07-12T15:57:26.864Z,101099.22
2018-07-12T15:59:55.985Z,101101.42
2018-07-12T16:02:25.084Z,101104.37
2018-07-12T16:04:54.201Z,101108.57
2018-07-12T16:07:23.381Z,101105.80
2018-07-12T16:09:52.514Z,101096.66
2018-07-12T16:12:21.617Z,101100.57
2018-07-12T16:14:50.738Z,101097.34
2018-07-12T16:17:19.876Z,101098.73
2018-07-12T16:19:49.917Z,101093.75
2018-07-12T16:22:19.065Z,101100.36
2018-07-12T16:24:48.196Z,101096.81
2018-07-12T16:27:17.320Z,101092.94
2018-07-12T16:29:46.493Z,101094.00
2018-07-12T16:32:15.549Z,101095.26
2018-07-12T16:34:44.697Z,101087.34
2018-07-12T16:37:13.832Z,101085.84
2018-07-12T16:39:42.949Z,101089.10
2018-07-12T16:42:12.069Z,101086.00
2018-07-12T16:44:41.172Z,101084.97
2018-07-12T16:47:11.309Z,101080.80
2018-07-12T16:49:40.457Z,101086.23
2018-07-12T16:52:09.565Z,101085.61
2018-07-12T16:54:38.816Z,101084.42
2018-07-12T16:57:07.809Z,101088.48
2018-07-12T16:59:36.950Z,101094.77
2018-07-12T17:02:06.065Z,101102.40
2018-07-12T17:04:35.182Z,101101.47
2018-07-12T17:07:04.463Z,101099.98
2018-07-12T17:09:33.734Z,101109.64
2018-07-12T17:12:02.845Z,101106.09
2018-07-12T17:14:31.933Z,101109.88
2018-07-12T17:17:01.033Z,101113.75
2018-07-12T17:19:30.168Z,101113.34
2018-07-12T17:21:59.270Z,101111.59
2018-07-12T17:24:28.400Z,101110.69
2018-07-12T17:26:57.505Z,101119.38
2018-07-12T17:29:26.589Z,101113.62
2018-07-12T17:31:55.774Z,101115.00
2018-07-12T17:34:24.904Z,101111.72
2018-07-12T17:36:54.084Z,101115.94
2018-07-12T17:39:23.228Z,101115.26
2018-07-12T17:41:52.449Z,101113.95
2018-07-12T17:44:21.565Z,101119.00
2018-07-12T17:46:50.665Z,101115.70
2018-07-12T17:49:19.755Z,101117.69
2018-07-12T17:51:48.872Z,101115.70
2018-07-12T17:54:17.963Z,101129.47
2018-07-12T17:56:47.124Z,101122.63
2018-07-12T17:59:17.185Z,101120.55
2018-07-12T18:01:46.790Z,101123.94
2018-07-12T18:04:19.657Z,101123.08
2018-07-12T18:06:48.761Z,101123.26
2018-07-12T18:09:17.867Z,101122.61
2018-07-12T18:11:46.972Z,101121.51
2018-07-12T18:14:16.128Z,101116.09
2018-07-12T18:16:45.282Z,101115.36
2018-07-12T18:19:14.369Z,101116.11
2018-07-12T18:21:43.486Z,101129.92
2018-07-12T18:24:12.589Z,101124.81
2018-07-12T18:26:41.685Z,101124.29
2018-07-12T18:29:10.808Z,101117.12
2018-07-12T18:31:39.923Z,101124.23
2018-07-12T18:34:09.084Z,101128.07
2018-07-12T18:36:38.215Z,101129.06
2018-07-12T18:39:09.236Z,101130.50
2018-07-12T18:41:38.560Z,101128.07
2018-07-12T18:44:07.669Z,101130.67
2018-07-12T18:46:36.771Z,101132.77
2018-07-12T18:49:06.404Z,101139.70
2018-07-12T18:51:36.303Z,101135.17
2018-07-12T18:54:05.405Z,101133.48
2018-07-12T18:56:34.629Z,101133.01
2018-07-12T18:59:03.712Z,101136.09
2018-07-12T19:01:32.822Z,101136.13
2018-07-12T19:04:01.934Z,101146.70
2018-07-12T19:06:31.095Z,101150.70
2018-07-12T19:09:00.197Z,101150.77
2018-07-12T19:11:29.301Z,101156.11
2018-07-12T19:13:58.390Z,101155.22
2018-07-12T19:16:27.532Z,101160.13
2018-07-12T19:18:56.628Z,101165.78
2018-07-12T19:21:25.808Z,101168.58
2018-07-12T19:23:58.730Z,101171.88
2018-07-12T19:26:27.914Z,101178.20
2018-07-12T19:28:57.179Z,101177.37
2018-07-12T19:31:26.374Z,101178.47
2018-07-12T19:33:55.471Z,101177.61
2018-07-12T19:36:24.585Z,101175.90
2018-07-12T19:38:53.701Z,101182.83
2018-07-12T19:41:22.814Z,101182.47
2018-07-12T19:43:52.161Z,101183.12
2018-07-12T19:46:21.293Z,101189.33
2018-07-12T19:48:51.061Z,101186.98
2018-07-12T19:51:20.192Z,101186.35
2018-07-12T19:53:49.264Z,101190.03
2018-07-12T19:56:18.408Z,101187.92
2018-07-12T19:58:47.503Z,101190.52
2018-07-12T20:01:16.648Z,101189.56
2018-07-12T20:03:45.794Z,101194.86
2018-07-12T20:06:14.912Z,101191.84
2018-07-12T20:08:44.072Z,101198.38
2018-07-12T20:11:13.213Z,101199.45
2018-07-12T20:13:42.288Z,101199.87
2018-07-12T20:16:11.410Z,101199.41
2018-07-12T20:18:40.579Z,101205.48
2018-07-12T20:21:09.736Z,101202.02
2018-07-12T20:23:38.882Z,101202.97
2018-07-12T20:26:08.132Z,101206.58
2018-07-12T20:28:37.308Z,101213.58
2018-07-12T20:31:06.844Z,101218.39
2018-07-12T20:33:36.414Z,101219.01
2018-07-12T20:36:05.485Z,101216.15
2018-07-12T20:38:34.668Z,101222.64
2018-07-12T20:41:03.780Z,101222.20
2018-07-12T20:43:33.081Z,101227.03
2018-07-12T20:46:02.174Z,101228.78
2018-07-12T20:48:31.289Z,101240.83
2018-07-12T20:51:00.410Z,101243.30
2018-07-12T20:53:29.529Z,101247.81
2018-07-12T20:55:58.676Z,101251.59
2018-07-12T20:58:27.780Z,101255.48
2018-07-12T21:00:56.961Z,101247.68
2018-07-12T21:03:26.029Z,101253.69
2018-07-12T21:05:55.145Z,101260.52
2018-07-12T21:08:24.281Z,101262.62
2018-07-12T21:10:53.436Z,101257.80
2018-07-12T21:13:22.568Z,101265.06
2018-07-12T21:15:51.665Z,101264.48
2018-07-12T21:18:20.796Z,101270.61
2018-07-12T21:20:49.896Z,101274.94
2018-07-12T21:23:19.076Z,101276.73
2018-07-12T21:25:48.225Z,101282.35
2018-07-12T21:28:17.338Z,101283.16
2018-07-12T21:30:46.469Z,101280.63
2018-07-12T21:33:15.629Z,101286.25
2018-07-12T21:35:44.719Z,101288.00
2018-07-12T21:38:14.312Z,101281.49
2018-07-12T21:40:43.436Z,101287.50
2018-07-12T21:43:12.604Z,101294.47
2018-07-12T21:45:41.791Z,101292.34
2018-07-12T21:48:10.901Z,101297.14
2018-07-12T21:50:40.019Z,101294.55
2018-07-12T21:53:09.152Z,101297.95
2018-07-12T21:55:38.277Z,101299.34
2018-07-12T21:58:07.381Z,101302.85
2018-07-12T22:00:36.503Z,101300.63
2018-07-12T22:03:05.615Z,101307.77
2018-07-12T22:05:34.704Z,101300.89
2018-07-12T22:08:27.676Z,101297.00
2018-07-12T22:11:05.904Z,101303.47
2018-07-12T22:13:36.457Z,101308.66
2018-07-12T22:16:05.554Z,101305.64
2018-07-12T22:18:34.673Z,101312.53
2018-07-12T22:21:03.790Z,101316.84
2018-07-12T22:23:32.912Z,101321.70
2018-07-12T22:26:01.996Z,101314.49
2018-07-12T22:28:31.124Z,101321.66
2018-07-12T22:31:00.226Z,101319.24
2018-07-12T22:33:29.354Z,101315.52
2018-07-12T22:35:58.476Z,101316.52
2018-07-12T22:38:27.593Z,101315.66
2018-07-12T22:40:56.708Z,101314.78
2018-07-12T22:43:25.823Z,101309.12
2018-07-12T22:45:54.908Z,101321.14
2018-07-12T22:48:24.165Z,101317.34
2018-07-12T22:50:53.175Z,101319.03
2018-07-12T22:53:22.308Z,101323.25
2018-07-12T22:55:51.410Z,101323.62
2018-07-12T22:58:20.522Z,101324.92
2018-07-12T23:00:49.623Z,101325.41
2018-07-12T23:03:18.760Z,101331.94
2018-07-12T23:05:47.845Z,101325.52
2018-07-12T23:08:16.976Z,101322.14
2018-07-12T23:10:46.085Z,101322.61
2018-07-12T23:13:15.196Z,101325.69
2018-07-12T23:15:44.896Z,101324.44
2018-07-12T23:18:14.000Z,101328.80
2018-07-12T23:20:43.083Z,101329.63
2018-07-12T23:23:12.188Z,101325.83
2018-07-12T23:25:41.268Z,101323.70
2018-07-12T23:28:10.401Z,101328.54
2018-07-12T23:30:39.479Z,101326.81
2018-07-12T23:33:08.616Z,101325.99
2018-07-12T23:35:37.735Z,101323.01
2018-07-12T23:38:06.912Z,101323.44
2018-07-12T23:40:35.997Z,101325.64
2018-07-12T23:43:05.124Z,101325.74
2018-07-12T23:45:34.207Z,101323.21
2018-07-12T23:48:03.302Z,101324.19
2018-07-12T23:50:32.424Z,101324.63
2018-07-12T23:53:01.505Z,101326.37
2018-07-12T23:55:30.649Z,101319.95
2018-07-12T23:57:59.768Z,101319.09
